sensor_id;sensor_type;location;lat;lon;timestamp;P1;durP1;ratioP1;P2;durP2;ratioP2
17235;SDS011;8734;59.272;17.780;2023-04-25T00:01:55;11.30;;;4.60;;
17235;SDS011;8734;59.272;17.780;2023-04-25T00:04:24;11.30;;;5.07;;
17235;SDS011;8734;59.272;17.780;2023-04-25T00:06:55;12.83;;;4.53;;
17235;SDS011;8734;59.272;17.780;2023-04-25T00:09:24;10.70;;;4.90;;
17235;SDS011;8734;59.272;17.780;2023-04-25T00:11:52;6.30;;;4.27;;
17235;SDS011;8734;59.272;17.780;2023-04-25T00:14:21;9.60;;;5.70;;
17235;SDS011;8734;59.272;17.780;2023-04-25T00:16:49;9.40;;;4.47;;
17235;SDS011;8734;59.272;17.780;2023-04-25T00:19:18;9.73;;;4.57;;
17235;SDS011;8734;59.272;17.780;2023-04-25T00:21:47;8.37;;;4.73;;
17235;SDS011;8734;59.272;17.780;2023-04-25T00:24:16;10.43;;;4.90;;
17235;SDS011;8734;59.272;17.780;2023-04-25T00:26:45;12.53;;;5.27;;
17235;SDS011;8734;59.272;17.780;2023-04-25T00:29:14;14.03;;;4.90;;
17235;SDS011;8734;59.272;17.780;2023-04-25T00:31:42;11.27;;;5.17;;
17235;SDS011;8734;59.272;17.780;2023-04-25T00:34:10;14.30;;;4.67;;
17235;SDS011;8734;59.272;17.780;2023-04-25T00:36:39;10.30;;;5.60;;
17235;SDS011;8734;59.272;17.780;2023-04-25T00:39:07;12.70;;;5.67;;
17235;SDS011;8734;59.272;17.780;2023-04-25T00:41:37;13.27;;;5.57;;
17235;SDS011;8734;59.272;17.780;2023-04-25T00:44:08;11.13;;;5.47;;
17235;SDS011;8734;59.272;17.780;2023-04-25T00:46:38;8.57;;;5.33;;
17235;SDS011;8734;59.272;17.780;2023-04-25T00:49:06;10.93;;;6.23;;
17235;SDS011;8734;59.272;17.780;2023-04-25T00:51:35;12.73;;;5.40;;
17235;SDS011;8734;59.272;17.780;2023-04-25T00:54:04;10.80;;;5.30;;
17235;SDS011;8734;59.272;17.780;2023-04-25T00:56:32;9.20;;;4.67;;
17235;SDS011;8734;59.272;17.780;2023-04-25T00:59:02;13.23;;;4.93;;
17235;SDS011;8734;59.272;17.780;2023-04-25T01:01:31;8.87;;;4.83;;
17235;SDS011;8734;59.272;17.780;2023-04-25T01:03:59;15.77;;;4.40;;
17235;SDS011;8734;59.272;17.780;2023-04-25T01:06:29;11.63;;;4.90;;
17235;SDS011;8734;59.272;17.780;2023-04-25T01:08:59;6.70;;;3.90;;
17235;SDS011;8734;59.272;17.780;2023-04-25T01:11:27;8.60;;;3.37;;
17235;SDS011;8734;59.272;17.780;2023-04-25T01:13:56;9.90;;;3.93;;
17235;SDS011;8734;59.272;17.780;2023-04-25T01:16:26;7.23;;;3.73;;
17235;SDS011;8734;59.272;17.780;2023-04-25T01:18:54;11.77;;;4.30;;
17235;SDS011;8734;59.272;17.780;2023-04-25T01:21:25;6.40;;;3.90;;
17235;SDS011;8734;59.272;17.780;2023-04-25T01:23:56;8.33;;;4.33;;
17235;SDS011;8734;59.272;17.780;2023-04-25T01:26:25;10.03;;;4.27;;
17235;SDS011;8734;59.272;17.780;2023-04-25T01:28:54;8.43;;;3.90;;
17235;SDS011;8734;59.272;17.780;2023-04-25T01:31:22;6.97;;;4.07;;
17235;SDS011;8734;59.272;17.780;2023-04-25T01:33:51;8.03;;;4.43;;
17235;SDS011;8734;59.272;17.780;2023-04-25T01:36:19;9.60;;;3.93;;
17235;SDS011;8734;59.272;17.780;2023-04-25T01:38:50;8.47;;;3.50;;
17235;SDS011;8734;59.272;17.780;2023-04-25T01:41:19;12.10;;;4.37;;
17235;SDS011;8734;59.272;17.780;2023-04-25T01:43:49;7.60;;;4.03;;
17235;SDS011;8734;59.272;17.780;2023-04-25T01:46:18;7.83;;;4.00;;
17235;SDS011;8734;59.272;17.780;2023-04-25T01:48:46;6.97;;;3.87;;
17235;SDS011;8734;59.272;17.780;2023-04-25T01:51:15;7.53;;;3.70;;
17235;SDS011;8734;59.272;17.780;2023-04-25T01:53:44;6.70;;;3.77;;
17235;SDS011;8734;59.272;17.780;2023-04-25T01:56:14;7.73;;;4.17;;
17235;SDS011;8734;59.272;17.780;2023-04-25T01:58:43;7.17;;;4.20;;
17235;SDS011;8734;59.272;17.780;2023-04-25T02:01:11;6.50;;;3.53;;
17235;SDS011;8734;59.272;17.780;2023-04-25T02:03:39;6.77;;;3.50;;
17235;SDS011;8734;59.272;17.780;2023-04-25T02:06:08;8.07;;;3.60;;
17235;SDS011;8734;59.272;17.780;2023-04-25T02:08:36;7.63;;;3.03;;
17235;SDS011;8734;59.272;17.780;2023-04-25T02:11:05;8.30;;;3.47;;
17235;SDS011;8734;59.272;17.780;2023-04-25T02:13:35;8.70;;;3.87;;
17235;SDS011;8734;59.272;17.780;2023-04-25T02:16:03;7.53;;;3.50;;
17235;SDS011;8734;59.272;17.780;2023-04-25T02:18:33;6.47;;;3.63;;
17235;SDS011;8734;59.272;17.780;2023-04-25T02:21:03;9.77;;;4.00;;
17235;SDS011;8734;59.272;17.780;2023-04-25T02:23:31;7.83;;;3.90;;
17235;SDS011;8734;59.272;17.780;2023-04-25T02:26:00;5.47;;;3.23;;
17235;SDS011;8734;59.272;17.780;2023-04-25T02:28:29;10.03;;;4.30;;
17235;SDS011;8734;59.272;17.780;2023-04-25T02:30:59;6.73;;;3.90;;
17235;SDS011;8734;59.272;17.780;2023-04-25T02:33:27;10.13;;;3.97;;
17235;SDS011;8734;59.272;17.780;2023-04-25T02:35:55;11.17;;;3.90;;
17235;SDS011;8734;59.272;17.780;2023-04-25T02:38:24;6.70;;;4.03;;
17235;SDS011;8734;59.272;17.780;2023-04-25T02:40:52;6.77;;;3.73;;
17235;SDS011;8734;59.272;17.780;2023-04-25T02:43:20;7.23;;;3.80;;
17235;SDS011;8734;59.272;17.780;2023-04-25T02:45:48;7.03;;;3.03;;
17235;SDS011;8734;59.272;17.780;2023-04-25T02:48:18;9.03;;;3.60;;
17235;SDS011;8734;59.272;17.780;2023-04-25T02:50:46;8.47;;;3.60;;
17235;SDS011;8734;59.272;17.780;2023-04-25T02:53:15;8.53;;;3.90;;
17235;SDS011;8734;59.272;17.780;2023-04-25T02:55:43;5.27;;;2.97;;
17235;SDS011;8734;59.272;17.780;2023-04-25T02:58:11;5.13;;;2.80;;
17235;SDS011;8734;59.272;17.780;2023-04-25T03:00:40;5.10;;;3.20;;
17235;SDS011;8734;59.272;17.780;2023-04-25T03:03:08;5.43;;;3.10;;
17235;SDS011;8734;59.272;17.780;2023-04-25T03:05:38;4.33;;;2.73;;
17235;SDS011;8734;59.272;17.780;2023-04-25T03:08:06;4.87;;;3.00;;
17235;SDS011;8734;59.272;17.780;2023-04-25T03:10:35;4.80;;;2.70;;
17235;SDS011;8734;59.272;17.780;2023-04-25T03:13:03;4.67;;;2.83;;
17235;SDS011;8734;59.272;17.780;2023-04-25T03:15:32;6.67;;;3.17;;
17235;SDS011;8734;59.272;17.780;2023-04-25T03:18:00;3.83;;;2.33;;
17235;SDS011;8734;59.272;17.780;2023-04-25T03:20:30;5.33;;;2.77;;
17235;SDS011;8734;59.272;17.780;2023-04-25T03:23:00;5.33;;;2.47;;
17235;SDS011;8734;59.272;17.780;2023-04-25T03:25:29;4.50;;;2.50;;
17235;SDS011;8734;59.272;17.780;2023-04-25T03:27:57;4.60;;;2.43;;
17235;SDS011;8734;59.272;17.780;2023-04-25T03:30:26;4.13;;;2.30;;
17235;SDS011;8734;59.272;17.780;2023-04-25T03:32:54;3.60;;;2.10;;
17235;SDS011;8734;59.272;17.780;2023-04-25T03:35:23;5.30;;;2.30;;
17235;SDS011;8734;59.272;17.780;2023-04-25T03:37:51;2.33;;;1.70;;
17235;SDS011;8734;59.272;17.780;2023-04-25T03:40:21;3.30;;;1.90;;
17235;SDS011;8734;59.272;17.780;2023-04-25T03:42:50;2.87;;;1.90;;
17235;SDS011;8734;59.272;17.780;2023-04-25T03:45:18;2.20;;;1.80;;
17235;SDS011;8734;59.272;17.780;2023-04-25T03:47:47;3.20;;;1.77;;
17235;SDS011;8734;59.272;17.780;2023-04-25T03:50:16;3.17;;;1.30;;
17235;SDS011;8734;59.272;17.780;2023-04-25T03:52:44;3.30;;;2.00;;
17235;SDS011;8734;59.272;17.780;2023-04-25T03:55:13;3.77;;;2.30;;
17235;SDS011;8734;59.272;17.780;2023-04-25T03:57:42;3.33;;;1.83;;
17235;SDS011;8734;59.272;17.780;2023-04-25T04:00:11;2.80;;;2.03;;
17235;SDS011;8734;59.272;17.780;2023-04-25T04:02:41;3.93;;;2.53;;
17235;SDS011;8734;59.272;17.780;2023-04-25T04:05:11;2.00;;;1.50;;
17235;SDS011;8734;59.272;17.780;2023-04-25T04:07:39;5.03;;;1.83;;
17235;SDS011;8734;59.272;17.780;2023-04-25T04:10:09;3.30;;;1.97;;
17235;SDS011;8734;59.272;17.780;2023-04-25T04:12:38;2.43;;;1.63;;
17235;SDS011;8734;59.272;17.780;2023-04-25T04:15:08;3.17;;;2.30;;
17235;SDS011;8734;59.272;17.780;2023-04-25T04:17:39;2.77;;;1.70;;
17235;SDS011;8734;59.272;17.780;2023-04-25T04:20:07;3.33;;;2.00;;
17235;SDS011;8734;59.272;17.780;2023-04-25T04:22:37;5.97;;;2.07;;
17235;SDS011;8734;59.272;17.780;2023-04-25T04:25:05;3.57;;;2.33;;
17235;SDS011;8734;59.272;17.780;2023-04-25T04:27:35;5.23;;;2.10;;
17235;SDS011;8734;59.272;17.780;2023-04-25T04:30:03;6.73;;;2.80;;
17235;SDS011;8734;59.272;17.780;2023-04-25T04:32:34;5.23;;;2.50;;
17235;SDS011;8734;59.272;17.780;2023-04-25T04:35:04;4.20;;;2.53;;
17235;SDS011;8734;59.272;17.780;2023-04-25T04:37:33;3.90;;;1.87;;
17235;SDS011;8734;59.272;17.780;2023-04-25T04:40:03;4.07;;;2.13;;
17235;SDS011;8734;59.272;17.780;2023-04-25T04:42:33;4.17;;;2.40;;
17235;SDS011;8734;59.272;17.780;2023-04-25T04:45:02;5.13;;;2.77;;
17235;SDS011;8734;59.272;17.780;2023-04-25T04:47:31;3.40;;;2.50;;
17235;SDS011;8734;59.272;17.780;2023-04-25T04:50:02;6.60;;;3.20;;
17235;SDS011;8734;59.272;17.780;2023-04-25T04:52:31;5.07;;;2.43;;
17235;SDS011;8734;59.272;17.780;2023-04-25T04:54:59;5.43;;;2.80;;
17235;SDS011;8734;59.272;17.780;2023-04-25T04:57:27;7.43;;;2.90;;
17235;SDS011;8734;59.272;17.780;2023-04-25T04:59:57;5.57;;;2.73;;
17235;SDS011;8734;59.272;17.780;2023-04-25T05:02:25;7.97;;;3.33;;
17235;SDS011;8734;59.272;17.780;2023-04-25T05:04:55;6.77;;;3.43;;
17235;SDS011;8734;59.272;17.780;2023-04-25T05:07:25;6.13;;;3.50;;
17235;SDS011;8734;59.272;17.780;2023-04-25T05:09:53;7.90;;;3.30;;
17235;SDS011;8734;59.272;17.780;2023-04-25T05:12:21;11.53;;;3.70;;
17235;SDS011;8734;59.272;17.780;2023-04-25T05:14:50;8.13;;;4.30;;
17235;SDS011;8734;59.272;17.780;2023-04-25T05:17:18;13.17;;;4.23;;
17235;SDS011;8734;59.272;17.780;2023-04-25T05:19:47;14.10;;;4.63;;
17235;SDS011;8734;59.272;17.780;2023-04-25T05:22:15;12.93;;;4.80;;
17235;SDS011;8734;59.272;17.780;2023-04-25T05:24:45;11.63;;;5.20;;
17235;SDS011;8734;59.272;17.780;2023-04-25T05:27:16;13.73;;;4.43;;
17235;SDS011;8734;59.272;17.780;2023-04-25T05:29:44;12.60;;;4.73;;
17235;SDS011;8734;59.272;17.780;2023-04-25T05:32:13;14.67;;;4.80;;
17235;SDS011;8734;59.272;17.780;2023-04-25T05:34:41;19.13;;;5.30;;
17235;SDS011;8734;59.272;17.780;2023-04-25T05:37:10;14.57;;;6.03;;
17235;SDS011;8734;59.272;17.780;2023-04-25T05:39:38;15.97;;;6.63;;
17235;SDS011;8734;59.272;17.780;2023-04-25T05:42:08;19.33;;;6.07;;
17235;SDS011;8734;59.272;17.780;2023-04-25T05:44:36;15.77;;;5.97;;
17235;SDS011;8734;59.272;17.780;2023-04-25T05:47:05;13.30;;;5.80;;
17235;SDS011;8734;59.272;17.780;2023-04-25T05:49:33;14.50;;;5.90;;
17235;SDS011;8734;59.272;17.780;2023-04-25T05:52:01;20.03;;;6.07;;
17235;SDS011;8734;59.272;17.780;2023-04-25T05:54:30;20.87;;;6.77;;
17235;SDS011;8734;59.272;17.780;2023-04-25T05:56:58;13.97;;;6.80;;
17235;SDS011;8734;59.272;17.780;2023-04-25T05:59:28;23.93;;;7.70;;
17235;SDS011;8734;59.272;17.780;2023-04-25T06:01:57;18.07;;;6.70;;
17235;SDS011;8734;59.272;17.780;2023-04-25T06:04:25;16.53;;;7.53;;
17235;SDS011;8734;59.272;17.780;2023-04-25T06:06:54;14.33;;;6.70;;
17235;SDS011;8734;59.272;17.780;2023-04-25T06:09:22;20.17;;;6.87;;
17235;SDS011;8734;59.272;17.780;2023-04-25T06:11:51;17.80;;;7.60;;
17235;SDS011;8734;59.272;17.780;2023-04-25T06:14:19;20.07;;;6.37;;
17235;SDS011;8734;59.272;17.780;2023-04-25T06:16:49;16.70;;;7.07;;
17235;SDS011;8734;59.272;17.780;2023-04-25T06:19:17;21.77;;;7.23;;
17235;SDS011;8734;59.272;17.780;2023-04-25T06:21:45;22.43;;;7.50;;
17235;SDS011;8734;59.272;17.780;2023-04-25T06:24:14;13.67;;;6.43;;
17235;SDS011;8734;59.272;17.780;2023-04-25T06:26:43;16.97;;;6.80;;
17235;SDS011;8734;59.272;17.780;2023-04-25T06:29:11;17.17;;;6.57;;
17235;SDS011;8734;59.272;17.780;2023-04-25T06:31:39;16.50;;;6.33;;
17235;SDS011;8734;59.272;17.780;2023-04-25T06:34:09;14.63;;;6.37;;
17235;SDS011;8734;59.272;17.780;2023-04-25T06:36:38;14.93;;;6.10;;
17235;SDS011;8734;59.272;17.780;2023-04-25T06:39:07;17.73;;;6.53;;
17235;SDS011;8734;59.272;17.780;2023-04-25T06:41:36;14.93;;;5.57;;
17235;SDS011;8734;59.272;17.780;2023-04-25T06:44:04;15.43;;;6.07;;
17235;SDS011;8734;59.272;17.780;2023-04-25T06:46:32;14.43;;;5.70;;
17235;SDS011;8734;59.272;17.780;2023-04-25T06:49:01;11.67;;;5.40;;
17235;SDS011;8734;59.272;17.780;2023-04-25T06:51:30;12.90;;;6.00;;
17235;SDS011;8734;59.272;17.780;2023-04-25T06:53:59;12.20;;;5.00;;
17235;SDS011;8734;59.272;17.780;2023-04-25T06:56:28;14.37;;;5.20;;
17235;SDS011;8734;59.272;17.780;2023-04-25T06:58:57;12.80;;;5.40;;
17235;SDS011;8734;59.272;17.780;2023-04-25T07:01:27;15.17;;;5.07;;
17235;SDS011;8734;59.272;17.780;2023-04-25T07:03:56;12.67;;;5.77;;
17235;SDS011;8734;59.272;17.780;2023-04-25T07:06:24;11.57;;;5.57;;
17235;SDS011;8734;59.272;17.780;2023-04-25T07:08:55;9.50;;;4.77;;
17235;SDS011;8734;59.272;17.780;2023-04-25T07:11:24;8.13;;;4.67;;
17235;SDS011;8734;59.272;17.780;2023-04-25T07:13:52;9.57;;;4.80;;
17235;SDS011;8734;59.272;17.780;2023-04-25T07:16:22;11.97;;;4.80;;
17235;SDS011;8734;59.272;17.780;2023-04-25T07:18:50;14.03;;;4.80;;
17235;SDS011;8734;59.272;17.780;2023-04-25T07:21:18;9.93;;;4.00;;
17235;SDS011;8734;59.272;17.780;2023-04-25T07:23:47;14.07;;;4.60;;
17235;SDS011;8734;59.272;17.780;2023-04-25T07:26:16;10.33;;;4.70;;
17235;SDS011;8734;59.272;17.780;2023-04-25T07:28:45;10.90;;;4.73;;
17235;SDS011;8734;59.272;17.780;2023-04-25T07:31:18;12.53;;;4.83;;
17235;SDS011;8734;59.272;17.780;2023-04-25T07:33:46;8.87;;;4.90;;
17235;SDS011;8734;59.272;17.780;2023-04-25T07:36:14;11.77;;;5.20;;
17235;SDS011;8734;59.272;17.780;2023-04-25T07:38:43;10.33;;;5.50;;
17235;SDS011;8734;59.272;17.780;2023-04-25T07:41:11;9.57;;;4.57;;
17235;SDS011;8734;59.272;17.780;2023-04-25T07:43:41;12.50;;;4.93;;
17235;SDS011;8734;59.272;17.780;2023-04-25T07:46:10;12.43;;;5.00;;
17235;SDS011;8734;59.272;17.780;2023-04-25T07:48:38;10.73;;;5.63;;
17235;SDS011;8734;59.272;17.780;2023-04-25T07:51:06;16.83;;;5.93;;
17235;SDS011;8734;59.272;17.780;2023-04-25T07:53:34;12.60;;;5.10;;
17235;SDS011;8734;59.272;17.780;2023-04-25T07:56:04;11.77;;;5.03;;
17235;SDS011;8734;59.272;17.780;2023-04-25T07:58:32;13.27;;;5.33;;
17235;SDS011;8734;59.272;17.780;2023-04-25T08:01:03;15.20;;;6.23;;
17235;SDS011;8734;59.272;17.780;2023-04-25T08:03:31;10.10;;;5.23;;
17235;SDS011;8734;59.272;17.780;2023-04-25T08:05:59;10.23;;;5.73;;
17235;SDS011;8734;59.272;17.780;2023-04-25T08:08:33;16.30;;;6.03;;
17235;SDS011;8734;59.272;17.780;2023-04-25T08:11:01;13.37;;;5.67;;
17235;SDS011;8734;59.272;17.780;2023-04-25T08:13:29;13.73;;;5.83;;
17235;SDS011;8734;59.272;17.780;2023-04-25T08:15:58;11.37;;;5.33;;
17235;SDS011;8734;59.272;17.780;2023-04-25T08:18:27;17.20;;;6.37;;
17235;SDS011;8734;59.272;17.780;2023-04-25T08:20:57;10.50;;;5.37;;
17235;SDS011;8734;59.272;17.780;2023-04-25T08:23:26;13.40;;;6.00;;
17235;SDS011;8734;59.272;17.780;2023-04-25T08:25:54;11.77;;;5.67;;
17235;SDS011;8734;59.272;17.780;2023-04-25T08:28:22;15.77;;;5.20;;
17235;SDS011;8734;59.272;17.780;2023-04-25T08:30:51;12.57;;;6.00;;
17235;SDS011;8734;59.272;17.780;2023-04-25T08:33:19;12.77;;;5.97;;
17235;SDS011;8734;59.272;17.780;2023-04-25T08:35:49;12.67;;;5.53;;
17235;SDS011;8734;59.272;17.780;2023-04-25T08:38:18;10.83;;;5.67;;
17235;SDS011;8734;59.272;17.780;2023-04-25T08:40:48;12.03;;;5.77;;
17235;SDS011;8734;59.272;17.780;2023-04-25T08:43:18;10.90;;;5.70;;
17235;SDS011;8734;59.272;17.780;2023-04-25T08:45:47;10.53;;;5.90;;
17235;SDS011;8734;59.272;17.780;2023-04-25T08:48:16;16.47;;;6.63;;
17235;SDS011;8734;59.272;17.780;2023-04-25T08:50:46;16.27;;;7.03;;
17235;SDS011;8734;59.272;17.780;2023-04-25T08:53:22;15.70;;;6.47;;
17235;SDS011;8734;59.272;17.780;2023-04-25T08:55:54;9.07;;;5.60;;
17235;SDS011;8734;59.272;17.780;2023-04-25T08:58:23;12.93;;;5.83;;
17235;SDS011;8734;59.272;17.780;2023-04-25T09:00:52;12.73;;;4.73;;
17235;SDS011;8734;59.272;17.780;2023-04-25T09:03:21;14.17;;;5.63;;
17235;SDS011;8734;59.272;17.780;2023-04-25T09:05:52;12.57;;;5.03;;
17235;SDS011;8734;59.272;17.780;2023-04-25T09:08:21;9.93;;;4.30;;
17235;SDS011;8734;59.272;17.780;2023-04-25T09:10:50;8.67;;;4.73;;
17235;SDS011;8734;59.272;17.780;2023-04-25T09:13:23;12.50;;;6.03;;
17235;SDS011;8734;59.272;17.780;2023-04-25T09:15:54;11.70;;;5.73;;
17235;SDS011;8734;59.272;17.780;2023-04-25T09:18:24;9.67;;;5.60;;
17235;SDS011;8734;59.272;17.780;2023-04-25T09:20:58;15.33;;;5.60;;
17235;SDS011;8734;59.272;17.780;2023-04-25T09:23:40;9.90;;;5.30;;
17235;SDS011;8734;59.272;17.780;2023-04-25T09:26:09;7.33;;;4.53;;
17235;SDS011;8734;59.272;17.780;2023-04-25T09:28:41;9.23;;;5.03;;
17235;SDS011;8734;59.272;17.780;2023-04-25T09:31:10;8.97;;;4.90;;
17235;SDS011;8734;59.272;17.780;2023-04-25T09:33:40;8.90;;;5.13;;
17235;SDS011;8734;59.272;17.780;2023-04-25T09:36:10;8.40;;;5.23;;
17235;SDS011;8734;59.272;17.780;2023-04-25T09:38:42;8.03;;;4.80;;
17235;SDS011;8734;59.272;17.780;2023-04-25T09:41:12;10.60;;;5.50;;
17235;SDS011;8734;59.272;17.780;2023-04-25T09:43:40;10.80;;;5.43;;
17235;SDS011;8734;59.272;17.780;2023-04-25T09:46:13;10.80;;;6.03;;
17235;SDS011;8734;59.272;17.780;2023-04-25T09:48:43;11.83;;;5.67;;
17235;SDS011;8734;59.272;17.780;2023-04-25T09:51:18;10.17;;;5.67;;
17235;SDS011;8734;59.272;17.780;2023-04-25T09:53:47;10.37;;;5.43;;
17235;SDS011;8734;59.272;17.780;2023-04-25T09:56:17;12.53;;;4.87;;
17235;SDS011;8734;59.272;17.780;2023-04-25T09:58:47;10.00;;;5.30;;
17235;SDS011;8734;59.272;17.780;2023-04-25T10:01:17;10.80;;;5.67;;
17235;SDS011;8734;59.272;17.780;2023-04-25T10:03:46;8.90;;;5.37;;
17235;SDS011;8734;59.272;17.780;2023-04-25T10:06:19;11.77;;;5.33;;
17235;SDS011;8734;59.272;17.780;2023-04-25T10:08:50;9.87;;;5.10;;
17235;SDS011;8734;59.272;17.780;2023-04-25T10:11:22;19.03;;;6.10;;
17235;SDS011;8734;59.272;17.780;2023-04-25T10:13:53;9.00;;;5.23;;
17235;SDS011;8734;59.272;17.780;2023-04-25T10:16:23;9.87;;;5.37;;
17235;SDS011;8734;59.272;17.780;2023-04-25T10:18:53;9.10;;;5.07;;
17235;SDS011;8734;59.272;17.780;2023-04-25T10:21:23;11.50;;;5.57;;
17235;SDS011;8734;59.272;17.780;2023-04-25T10:23:54;12.67;;;5.87;;
17235;SDS011;8734;59.272;17.780;2023-04-25T10:26:23;11.30;;;5.60;;
17235;SDS011;8734;59.272;17.780;2023-04-25T10:28:56;10.80;;;5.47;;
17235;SDS011;8734;59.272;17.780;2023-04-25T10:31:26;8.50;;;4.87;;
17235;SDS011;8734;59.272;17.780;2023-04-25T10:33:57;9.83;;;5.13;;
17235;SDS011;8734;59.272;17.780;2023-04-25T10:36:30;9.47;;;5.23;;
17235;SDS011;8734;59.272;17.780;2023-04-25T10:39:03;7.57;;;4.73;;
17235;SDS011;8734;59.272;17.780;2023-04-25T10:41:45;9.43;;;5.47;;
17235;SDS011;8734;59.272;17.780;2023-04-25T10:44:15;9.37;;;5.70;;
17235;SDS011;8734;59.272;17.780;2023-04-25T10:46:44;7.63;;;4.67;;
17235;SDS011;8734;59.272;17.780;2023-04-25T10:49:28;6.73;;;4.03;;
17235;SDS011;8734;59.272;17.780;2023-04-25T10:52:15;6.97;;;3.97;;
17235;SDS011;8734;59.272;17.780;2023-04-25T10:54:52;6.27;;;3.80;;
17235;SDS011;8734;59.272;17.780;2023-04-25T10:57:29;7.93;;;3.77;;
17235;SDS011;8734;59.272;17.780;2023-04-25T11:00:04;6.47;;;3.40;;
17235;SDS011;8734;59.272;17.780;2023-04-25T11:02:43;7.10;;;3.50;;
17235;SDS011;8734;59.272;17.780;2023-04-25T11:05:20;7.67;;;3.50;;
17235;SDS011;8734;59.272;17.780;2023-04-25T11:07:54;6.47;;;3.30;;
17235;SDS011;8734;59.272;17.780;2023-04-25T11:10:33;6.00;;;3.67;;
17235;SDS011;8734;59.272;17.780;2023-04-25T11:13:03;4.37;;;2.90;;
17235;SDS011;8734;59.272;17.780;2023-04-25T11:15:31;4.93;;;3.50;;
17235;SDS011;8734;59.272;17.780;2023-04-25T11:17:59;5.53;;;3.77;;
17235;SDS011;8734;59.272;17.780;2023-04-25T11:20:28;5.97;;;3.40;;
17235;SDS011;8734;59.272;17.780;2023-04-25T11:22:58;7.17;;;3.70;;
17235;SDS011;8734;59.272;17.780;2023-04-25T11:25:32;6.40;;;3.53;;
17235;SDS011;8734;59.272;17.780;2023-04-25T11:28:04;5.53;;;3.50;;
17235;SDS011;8734;59.272;17.780;2023-04-25T11:30:32;8.03;;;4.40;;
17235;SDS011;8734;59.272;17.780;2023-04-25T11:33:01;6.87;;;3.63;;
17235;SDS011;8734;59.272;17.780;2023-04-25T11:35:30;7.03;;;3.23;;
17235;SDS011;8734;59.272;17.780;2023-04-25T11:38:01;6.87;;;3.53;;
17235;SDS011;8734;59.272;17.780;2023-04-25T11:40:29;7.80;;;3.47;;
17235;SDS011;8734;59.272;17.780;2023-04-25T11:42:59;7.30;;;3.87;;
17235;SDS011;8734;59.272;17.780;2023-04-25T11:45:28;7.10;;;4.17;;
17235;SDS011;8734;59.272;17.780;2023-04-25T11:47:57;9.20;;;4.80;;
17235;SDS011;8734;59.272;17.780;2023-04-25T11:50:26;7.97;;;3.97;;
17235;SDS011;8734;59.272;17.780;2023-04-25T11:52:56;7.03;;;3.70;;
17235;SDS011;8734;59.272;17.780;2023-04-25T11:55:26;7.03;;;4.17;;
17235;SDS011;8734;59.272;17.780;2023-04-25T11:57:59;7.47;;;4.07;;
17235;SDS011;8734;59.272;17.780;2023-04-25T12:00:28;9.13;;;4.73;;
17235;SDS011;8734;59.272;17.780;2023-04-25T12:02:57;9.47;;;4.47;;
17235;SDS011;8734;59.272;17.780;2023-04-25T12:05:28;9.60;;;4.30;;
17235;SDS011;8734;59.272;17.780;2023-04-25T12:08:10;10.17;;;4.90;;
17235;SDS011;8734;59.272;17.780;2023-04-25T12:10:42;9.00;;;4.50;;
17235;SDS011;8734;59.272;17.780;2023-04-25T12:13:19;8.57;;;5.10;;
17235;SDS011;8734;59.272;17.780;2023-04-25T12:15:49;10.00;;;4.63;;
17235;SDS011;8734;59.272;17.780;2023-04-25T12:18:18;8.73;;;4.77;;
17235;SDS011;8734;59.272;17.780;2023-04-25T12:20:48;8.17;;;5.17;;
17235;SDS011;8734;59.272;17.780;2023-04-25T12:23:17;7.33;;;4.67;;
17235;SDS011;8734;59.272;17.780;2023-04-25T12:25:55;8.23;;;4.90;;
17235;SDS011;8734;59.272;17.780;2023-04-25T12:28:25;9.93;;;4.80;;
17235;SDS011;8734;59.272;17.780;2023-04-25T12:30:58;6.97;;;4.43;;
17235;SDS011;8734;59.272;17.780;2023-04-25T12:33:29;7.13;;;4.20;;
17235;SDS011;8734;59.272;17.780;2023-04-25T12:35:58;8.83;;;4.60;;
17235;SDS011;8734;59.272;17.780;2023-04-25T12:38:35;9.70;;;4.60;;
17235;SDS011;8734;59.272;17.780;2023-04-25T12:41:05;6.47;;;4.27;;
17235;SDS011;8734;59.272;17.780;2023-04-25T12:43:34;6.70;;;4.13;;
17235;SDS011;8734;59.272;17.780;2023-04-25T12:46:02;7.23;;;4.33;;
17235;SDS011;8734;59.272;17.780;2023-04-25T12:48:30;7.97;;;4.53;;
17235;SDS011;8734;59.272;17.780;2023-04-25T12:50:59;7.23;;;4.20;;
17235;SDS011;8734;59.272;17.780;2023-04-25T12:53:27;6.30;;;4.10;;
17235;SDS011;8734;59.272;17.780;2023-04-25T12:55:56;7.63;;;3.77;;
17235;SDS011;8734;59.272;17.780;2023-04-25T12:58:26;7.13;;;3.97;;
17235;SDS011;8734;59.272;17.780;2023-04-25T13:00:54;5.73;;;3.50;;
17235;SDS011;8734;59.272;17.780;2023-04-25T13:03:22;6.17;;;3.50;;
17235;SDS011;8734;59.272;17.780;2023-04-25T13:05:53;5.03;;;3.23;;
17235;SDS011;8734;59.272;17.780;2023-04-25T13:08:21;7.20;;;4.03;;
17235;SDS011;8734;59.272;17.780;2023-04-25T13:10:49;4.57;;;3.13;;
17235;SDS011;8734;59.272;17.780;2023-04-25T13:13:18;5.03;;;3.53;;
17235;SDS011;8734;59.272;17.780;2023-04-25T13:15:48;4.43;;;3.00;;
17235;SDS011;8734;59.272;17.780;2023-04-25T13:18:16;4.63;;;3.27;;
17235;SDS011;8734;59.272;17.780;2023-04-25T13:20:44;6.10;;;3.40;;
17235;SDS011;8734;59.272;17.780;2023-04-25T13:23:13;3.83;;;2.90;;
17235;SDS011;8734;59.272;17.780;2023-04-25T13:25:41;5.60;;;3.13;;
17235;SDS011;8734;59.272;17.780;2023-04-25T13:28:09;5.97;;;3.37;;
17235;SDS011;8734;59.272;17.780;2023-04-25T13:30:38;6.27;;;3.63;;
17235;SDS011;8734;59.272;17.780;2023-04-25T13:33:07;10.90;;;3.67;;
17235;SDS011;8734;59.272;17.780;2023-04-25T13:35:37;14.67;;;3.40;;
17235;SDS011;8734;59.272;17.780;2023-04-25T13:38:05;6.00;;;3.53;;
17235;SDS011;8734;59.272;17.780;2023-04-25T13:40:34;10.50;;;3.50;;
17235;SDS011;8734;59.272;17.780;2023-04-25T13:43:03;4.40;;;3.20;;
17235;SDS011;8734;59.272;17.780;2023-04-25T13:45:32;6.23;;;3.70;;
17235;SDS011;8734;59.272;17.780;2023-04-25T13:48:01;6.67;;;3.97;;
17235;SDS011;8734;59.272;17.780;2023-04-25T13:50:30;8.83;;;3.90;;
17235;SDS011;8734;59.272;17.780;2023-04-25T13:52:59;6.17;;;3.97;;
17235;SDS011;8734;59.272;17.780;2023-04-25T13:55:27;6.10;;;3.73;;
17235;SDS011;8734;59.272;17.780;2023-04-25T13:57:57;6.07;;;3.43;;
17235;SDS011;8734;59.272;17.780;2023-04-25T14:00:25;7.00;;;3.83;;
17235;SDS011;8734;59.272;17.780;2023-04-25T14:02:53;7.83;;;4.37;;
17235;SDS011;8734;59.272;17.780;2023-04-25T14:05:22;12.47;;;4.50;;
17235;SDS011;8734;59.272;17.780;2023-04-25T14:07:52;8.23;;;4.40;;
17235;SDS011;8734;59.272;17.780;2023-04-25T14:10:20;8.53;;;4.10;;
17235;SDS011;8734;59.272;17.780;2023-04-25T14:12:49;10.80;;;4.50;;
17235;SDS011;8734;59.272;17.780;2023-04-25T14:15:17;12.17;;;5.07;;
17235;SDS011;8734;59.272;17.780;2023-04-25T14:17:46;8.97;;;4.40;;
17235;SDS011;8734;59.272;17.780;2023-04-25T14:20:15;5.53;;;3.30;;
17235;SDS011;8734;59.272;17.780;2023-04-25T14:22:46;7.20;;;4.00;;
17235;SDS011;8734;59.272;17.780;2023-04-25T14:25:16;18.27;;;4.67;;
17235;SDS011;8734;59.272;17.780;2023-04-25T14:27:44;14.50;;;4.30;;
17235;SDS011;8734;59.272;17.780;2023-04-25T14:30:16;12.27;;;4.67;;
17235;SDS011;8734;59.272;17.780;2023-04-25T14:32:45;12.20;;;4.40;;
17235;SDS011;8734;59.272;17.780;2023-04-25T14:35:14;8.60;;;3.93;;
17235;SDS011;8734;59.272;17.780;2023-04-25T14:37:42;7.30;;;4.73;;
17235;SDS011;8734;59.272;17.780;2023-04-25T14:40:11;6.67;;;4.20;;
17235;SDS011;8734;59.272;17.780;2023-04-25T14:42:42;10.47;;;4.33;;
17235;SDS011;8734;59.272;17.780;2023-04-25T14:45:11;10.03;;;4.23;;
17235;SDS011;8734;59.272;17.780;2023-04-25T14:47:39;9.53;;;3.97;;
17235;SDS011;8734;59.272;17.780;2023-04-25T14:50:09;9.17;;;4.03;;
17235;SDS011;8734;59.272;17.780;2023-04-25T14:52:38;7.87;;;4.53;;
17235;SDS011;8734;59.272;17.780;2023-04-25T14:55:07;13.87;;;4.47;;
17235;SDS011;8734;59.272;17.780;2023-04-25T14:57:36;7.50;;;4.50;;